sensor_id;sensor_type;location;lat;lon;timestamp;temperature;humidity
8882;DHT22;4477;48.736;9.176;2024-03-25T00:01:06;2.70;99.90
8882;DHT22;4477;48.736;9.176;2024-03-25T00:03:32;2.70;99.90
8882;DHT22;4477;48.736;9.176;2024-03-25T00:05:59;2.60;99.90
8882;DHT22;4477;48.736;9.176;2024-03-25T00:08:25;2.60;99.90
8882;DHT22;4477;48.736;9.176;2024-03-25T00:10:52;2.60;99.90
8882;DHT22;4477;48.736;9.176;2024-03-25T00:13:20;2.60;99.90
8882;DHT22;4477;48.736;9.176;2024-03-25T00:15:47;2.60;99.90
8882;DHT22;4477;48.736;9.176;2024-03-25T00:18:13;2.60;99.90
8882;DHT22;4477;48.736;9.176;2024-03-25T00:20:40;2.60;99.90
8882;DHT22;4477;48.736;9.176;2024-03-25T00:23:06;2.60;99.90
8882;DHT22;4477;48.736;9.176;2024-03-25T00:25:33;2.60;99.90
8882;DHT22;4477;48.736;9.176;2024-03-25T00:27:59;2.60;99.90
8882;DHT22;4477;48.736;9.176;2024-03-25T00:30:27;2.60;99.90
8882;DHT22;4477;48.736;9.176;2024-03-25T00:32:53;2.50;99.90
8882;DHT22;4477;48.736;9.176;2024-03-25T00:35:20;2.50;99.90
8882;DHT22;4477;48.736;9.176;2024-03-25T00:37:46;2.50;99.90
8882;DHT22;4477;48.736;9.176;2024-03-25T00:40:13;2.40;99.90
8882;DHT22;4477;48.736;9.176;2024-03-25T00:42:39;2.40;99.90
8882;DHT22;4477;48.736;9.176;2024-03-25T00:45:06;2.40;99.90
8882;DHT22;4477;48.736;9.176;2024-03-25T00:47:35;2.30;99.90
8882;DHT22;4477;48.736;9.176;2024-03-25T00:50:02;2.20;99.90
8882;DHT22;4477;48.736;9.176;2024-03-25T00:52:28;2.30;99.90
8882;DHT22;4477;48.736;9.176;2024-03-25T00:54:55;2.20;99.90
8882;DHT22;4477;48.736;9.176;2024-03-25T00:57:21;2.20;99.90
8882;DHT22;4477;48.736;9.176;2024-03-25T00:59:47;2.20;99.90
8882;DHT22;4477;48.736;9.176;2024-03-25T01:02:14;2.10;99.90
8882;DHT22;4477;48.736;9.176;2024-03-25T01:04:42;2.10;99.90
8882;DHT22;4477;48.736;9.176;2024-03-25T01:07:08;2.30;99.90
8882;DHT22;4477;48.736;9.176;2024-03-25T01:09:35;2.20;99.90
8882;DHT22;4477;48.736;9.176;2024-03-25T01:12:01;2.30;99.90
8882;DHT22;4477;48.736;9.176;2024-03-25T01:14:28;2.20;99.90
8882;DHT22;4477;48.736;9.176;2024-03-25T01:16:54;2.30;99.90
8882;DHT22;4477;48.736;9.176;2024-03-25T01:19:22;2.20;99.90
8882;DHT22;4477;48.736;9.176;2024-03-25T01:21:49;2.20;99.90
8882;DHT22;4477;48.736;9.176;2024-03-25T01:24:16;2.10;99.90
8882;DHT22;4477;48.736;9.176;2024-03-25T01:26:42;2.10;99.90
8882;DHT22;4477;48.736;9.176;2024-03-25T01:29:09;2.10;99.90
8882;DHT22;4477;48.736;9.176;2024-03-25T01:31:35;2.10;99.90
8882;DHT22;4477;48.736;9.176;2024-03-25T01:34:02;2.10;99.90
8882;DHT22;4477;48.736;9.176;2024-03-25T01:36:28;2.10;99.90
8882;DHT22;4477;48.736;9.176;2024-03-25T01:38:57;2.20;99.90
8882;DHT22;4477;48.736;9.176;2024-03-25T01:41:23;2.20;99.90
8882;DHT22;4477;48.736;9.176;2024-03-25T01:43:50;2.30;99.90
8882;DHT22;4477;48.736;9.176;2024-03-25T01:46:17;2.40;99.90
8882;DHT22;4477;48.736;9.176;2024-03-25T01:48:45;2.30;99.90
8882;DHT22;4477;48.736;9.176;2024-03-25T01:51:12;2.30;99.90
8882;DHT22;4477;48.736;9.176;2024-03-25T01:53:40;2.20;99.90
8882;DHT22;4477;48.736;9.176;2024-03-25T01:56:08;2.20;99.90
8882;DHT22;4477;48.736;9.176;2024-03-25T01:58:36;2.20;99.90
8882;DHT22;4477;48.736;9.176;2024-03-25T02:01:03;2.20;99.90
8882;DHT22;4477;48.736;9.176;2024-03-25T02:03:30;2.10;99.90
8882;DHT22;4477;48.736;9.176;2024-03-25T02:06:02;2.10;99.90
8882;DHT22;4477;48.736;9.176;2024-03-25T02:08:31;2.10;99.90
8882;DHT22;4477;48.736;9.176;2024-03-25T02:10:58;2.20;99.90
8882;DHT22;4477;48.736;9.176;2024-03-25T02:13:26;2.10;99.90
8882;DHT22;4477;48.736;9.176;2024-03-25T02:15:53;2.20;99.90
8882;DHT22;4477;48.736;9.176;2024-03-25T02:18:20;2.20;99.90
8882;DHT22;4477;48.736;9.176;2024-03-25T02:20:47;2.20;99.90
8882;DHT22;4477;48.736;9.176;2024-03-25T02:23:14;2.30;99.90
8882;DHT22;4477;48.736;9.176;2024-03-25T02:25:42;2.20;99.90
8882;DHT22;4477;48.736;9.176;2024-03-25T02:28:11;2.20;99.90
8882;DHT22;4477;48.736;9.176;2024-03-25T02:30:37;2.20;99.90
8882;DHT22;4477;48.736;9.176;2024-03-25T02:33:04;2.30;99.90
8882;DHT22;4477;48.736;9.176;2024-03-25T02:35:30;2.30;99.90
8882;DHT22;4477;48.736;9.176;2024-03-25T02:37:57;2.40;99.90
8882;DHT22;4477;48.736;9.176;2024-03-25T02:40:23;2.40;99.90
8882;DHT22;4477;48.736;9.176;2024-03-25T02:42:51;2.50;99.90
8882;DHT22;4477;48.736;9.176;2024-03-25T02:45:19;2.50;99.90
8882;DHT22;4477;48.736;9.176;2024-03-25T02:47:49;2.50;99.90
8882;DHT22;4477;48.736;9.176;2024-03-25T02:50:16;2.60;99.90
8882;DHT22;4477;48.736;9.176;2024-03-25T02:52:43;2.60;99.90
8882;DHT22;4477;48.736;9.176;2024-03-25T02:55:09;2.60;99.90
8882;DHT22;4477;48.736;9.176;2024-03-25T02:57:36;2.60;99.90
8882;DHT22;4477;48.736;9.176;2024-03-25T03:00:03;2.60;99.90
8882;DHT22;4477;48.736;9.176;2024-03-25T03:02:32;2.60;99.90
8882;DHT22;4477;48.736;9.176;2024-03-25T03:05:00;2.60;99.90
8882;DHT22;4477;48.736;9.176;2024-03-25T03:07:29;2.60;99.90
8882;DHT22;4477;48.736;9.176;2024-03-25T03:09:55;2.70;99.90
8882;DHT22;4477;48.736;9.176;2024-03-25T03:12:22;2.60;99.90
8882;DHT22;4477;48.736;9.176;2024-03-25T03:14:49;2.50;99.90
8882;DHT22;4477;48.736;9.176;2024-03-25T03:17:21;2.50;99.90
8882;DHT22;4477;48.736;9.176;2024-03-25T03:19:49;2.30;99.90
8882;DHT22;4477;48.736;9.176;2024-03-25T03:22:16;2.20;99.90
8882;DHT22;4477;48.736;9.176;2024-03-25T03:24:45;2.10;99.90
8882;DHT22;4477;48.736;9.176;2024-03-25T03:27:12;2.00;99.90
8882;DHT22;4477;48.736;9.176;2024-03-25T03:29:38;1.90;99.90
8882;DHT22;4477;48.736;9.176;2024-03-25T03:32:08;1.90;99.90
8882;DHT22;4477;48.736;9.176;2024-03-25T03:34:34;1.70;99.90
8882;DHT22;4477;48.736;9.176;2024-03-25T03:37:03;1.50;99.90
8882;DHT22;4477;48.736;9.176;2024-03-25T03:39:29;1.50;99.90
8882;DHT22;4477;48.736;9.176;2024-03-25T03:41:56;1.50;99.90
8882;DHT22;4477;48.736;9.176;2024-03-25T03:44:23;1.50;99.90
8882;DHT22;4477;48.736;9.176;2024-03-25T03:46:50;1.40;99.90
8882;DHT22;4477;48.736;9.176;2024-03-25T03:49:16;1.40;99.90
8882;DHT22;4477;48.736;9.176;2024-03-25T03:51:43;1.40;99.90
8882;DHT22;4477;48.736;9.176;2024-03-25T03:54:10;1.50;99.90
8882;DHT22;4477;48.736;9.176;2024-03-25T03:56:37;1.40;99.90
8882;DHT22;4477;48.736;9.176;2024-03-25T03:59:02;1.40;99.90
8882;DHT22;4477;48.736;9.176;2024-03-25T04:01:29;1.40;99.90
8882;DHT22;4477;48.736;9.176;2024-03-25T04:03:55;1.40;99.90
8882;DHT22;4477;48.736;9.176;2024-03-25T04:06:22;1.50;99.90
8882;DHT22;4477;48.736;9.176;2024-03-25T04:08:48;1.50;99.90
8882;DHT22;4477;48.736;9.176;2024-03-25T04:11:17;1.50;99.90
8882;DHT22;4477;48.736;9.176;2024-03-25T04:13:43;1.60;99.90
8882;DHT22;4477;48.736;9.176;2024-03-25T04:16:09;1.70;99.90
8882;DHT22;4477;48.736;9.176;2024-03-25T04:18:36;1.70;99.90
8882;DHT22;4477;48.736;9.176;2024-03-25T04:21:02;1.60;99.90
8882;DHT22;4477;48.736;9.176;2024-03-25T04:23:29;1.50;99.90
8882;DHT22;4477;48.736;9.176;2024-03-25T04:25:55;1.40;99.90
8882;DHT22;4477;48.736;9.176;2024-03-25T04:28:29;1.40;99.90
8882;DHT22;4477;48.736;9.176;2024-03-25T04:30:55;1.30;99.90
8882;DHT22;4477;48.736;9.176;2024-03-25T04:33:21;1.30;99.90
8882;DHT22;4477;48.736;9.176;2024-03-25T04:35:48;1.30;99.90
8882;DHT22;4477;48.736;9.176;2024-03-25T04:38:16;1.40;99.90
8882;DHT22;4477;48.736;9.176;2024-03-25T04:40:42;1.30;99.90
8882;DHT22;4477;48.736;9.176;2024-03-25T04:43:08;1.40;99.90
8882;DHT22;4477;48.736;9.176;2024-03-25T04:45:35;1.40;99.90
8882;DHT22;4477;48.736;9.176;2024-03-25T04:48:01;1.40;99.90
8882;DHT22;4477;48.736;9.176;2024-03-25T04:50:27;1.30;99.90
8882;DHT22;4477;48.736;9.176;2024-03-25T04:52:53;1.30;99.90
8882;DHT22;4477;48.736;9.176;2024-03-25T04:55:19;1.40;99.90
8882;DHT22;4477;48.736;9.176;2024-03-25T04:57:45;1.40;99.90
8882;DHT22;4477;48.736;9.176;2024-03-25T05:00:12;1.50;99.90
8882;DHT22;4477;48.736;9.176;2024-03-25T05:02:39;1.50;99.90
8882;DHT22;4477;48.736;9.176;2024-03-25T05:05:06;1.50;99.90
8882;DHT22;4477;48.736;9.176;2024-03-25T05:07:32;1.50;99.90
8882;DHT22;4477;48.736;9.176;2024-03-25T05:09:58;1.50;99.90
8882;DHT22;4477;48.736;9.176;2024-03-25T05:12:24;1.50;99.90
8882;DHT22;4477;48.736;9.176;2024-03-25T05:14:50;1.40;99.90
8882;DHT22;4477;48.736;9.176;2024-03-25T05:17:16;1.20;99.90
8882;DHT22;4477;48.736;9.176;2024-03-25T05:19:43;1.20;99.90
8882;DHT22;4477;48.736;9.176;2024-03-25T05:22:09;1.20;99.90
8882;DHT22;4477;48.736;9.176;2024-03-25T05:24:35;1.30;99.90
8882;DHT22;4477;48.736;9.176;2024-03-25T05:27:01;1.50;99.90
8882;DHT22;4477;48.736;9.176;2024-03-25T05:29:27;1.60;99.90
8882;DHT22;4477;48.736;9.176;2024-03-25T05:31:57;1.70;99.90
8882;DHT22;4477;48.736;9.176;2024-03-25T05:34:24;1.80;99.90
8882;DHT22;4477;48.736;9.176;2024-03-25T05:36:51;1.90;99.90
8882;DHT22;4477;48.736;9.176;2024-03-25T05:39:17;1.90;99.90
8882;DHT22;4477;48.736;9.176;2024-03-25T05:41:43;2.00;99.90
8882;DHT22;4477;48.736;9.176;2024-03-25T05:44:09;2.00;99.90
8882;DHT22;4477;48.736;9.176;2024-03-25T05:46:35;2.10;99.90
8882;DHT22;4477;48.736;9.176;2024-03-25T05:49:02;2.10;99.90
8882;DHT22;4477;48.736;9.176;2024-03-25T05:51:28;2.10;99.90
8882;DHT22;4477;48.736;9.176;2024-03-25T05:53:56;2.20;99.90
8882;DHT22;4477;48.736;9.176;2024-03-25T05:56:22;2.30;99.90
8882;DHT22;4477;48.736;9.176;2024-03-25T05:58:48;2.30;99.90
8882;DHT22;4477;48.736;9.176;2024-03-25T06:01:14;2.40;99.90
8882;DHT22;4477;48.736;9.176;2024-03-25T06:03:40;2.40;99.90
8882;DHT22;4477;48.736;9.176;2024-03-25T06:06:06;2.50;99.90
8882;DHT22;4477;48.736;9.176;2024-03-25T06:08:32;2.40;99.90
8882;DHT22;4477;48.736;9.176;2024-03-25T06:11:02;2.50;99.90
8882;DHT22;4477;48.736;9.176;2024-03-25T06:13:28;2.50;99.90
8882;DHT22;4477;48.736;9.176;2024-03-25T06:15:54;2.50;99.90
8882;DHT22;4477;48.736;9.176;2024-03-25T06:18:20;2.60;99.90
8882;DHT22;4477;48.736;9.176;2024-03-25T06:20:46;2.70;99.90
8882;DHT22;4477;48.736;9.176;2024-03-25T06:23:22;2.70;99.90
8882;DHT22;4477;48.736;9.176;2024-03-25T06:25:50;2.90;99.90
8882;DHT22;4477;48.736;9.176;2024-03-25T06:28:17;3.00;99.90
8882;DHT22;4477;48.736;9.176;2024-03-25T06:30:44;3.10;99.90
8882;DHT22;4477;48.736;9.176;2024-03-25T06:33:29;3.20;99.90
8882;DHT22;4477;48.736;9.176;2024-03-25T06:36:13;3.20;99.90
8882;DHT22;4477;48.736;9.176;2024-03-25T06:38:39;3.30;99.90
8882;DHT22;4477;48.736;9.176;2024-03-25T06:41:05;3.40;99.90
8882;DHT22;4477;48.736;9.176;2024-03-25T06:43:33;3.50;99.90
8882;DHT22;4477;48.736;9.176;2024-03-25T06:45:59;3.60;99.90
8882;DHT22;4477;48.736;9.176;2024-03-25T06:48:26;3.60;99.90
8882;DHT22;4477;48.736;9.176;2024-03-25T06:50:53;3.60;99.90
8882;DHT22;4477;48.736;9.176;2024-03-25T06:53:19;3.60;99.90
8882;DHT22;4477;48.736;9.176;2024-03-25T06:55:51;3.40;99.90
8882;DHT22;4477;48.736;9.176;2024-03-25T06:58:19;3.30;99.90
8882;DHT22;4477;48.736;9.176;2024-03-25T07:00:47;3.30;99.90
8882;DHT22;4477;48.736;9.176;2024-03-25T07:03:14;3.40;99.90
8882;DHT22;4477;48.736;9.176;2024-03-25T07:05:40;3.40;99.90
8882;DHT22;4477;48.736;9.176;2024-03-25T07:08:06;3.30;99.90
8882;DHT22;4477;48.736;9.176;2024-03-25T07:10:33;3.40;99.90
8882;DHT22;4477;48.736;9.176;2024-03-25T07:12:59;3.50;99.90
8882;DHT22;4477;48.736;9.176;2024-03-25T07:15:25;3.60;99.90
8882;DHT22;4477;48.736;9.176;2024-03-25T07:17:52;4.20;99.90
8882;DHT22;4477;48.736;9.176;2024-03-25T07:20:18;4.90;99.90
8882;DHT22;4477;48.736;9.176;2024-03-25T07:22:45;5.30;99.90
8882;DHT22;4477;48.736;9.176;2024-03-25T07:25:11;5.70;99.90
8882;DHT22;4477;48.736;9.176;2024-03-25T07:27:37;5.50;99.90
8882;DHT22;4477;48.736;9.176;2024-03-25T07:30:03;5.30;99.90
8882;DHT22;4477;48.736;9.176;2024-03-25T07:32:30;6.10;99.90
8882;DHT22;4477;48.736;9.176;2024-03-25T07:34:57;7.70;99.90
8882;DHT22;4477;48.736;9.176;2024-03-25T07:37:23;9.10;94.20
8882;DHT22;4477;48.736;9.176;2024-03-25T07:39:49;10.10;90.80
8882;DHT22;4477;48.736;9.176;2024-03-25T07:42:15;10.60;83.20
8882;DHT22;4477;48.736;9.176;2024-03-25T07:44:41;10.80;79.20
8882;DHT22;4477;48.736;9.176;2024-03-25T07:47:07;11.80;75.90
8882;DHT22;4477;48.736;9.176;2024-03-25T07:49:33;12.20;72.20
8882;DHT22;4477;48.736;9.176;2024-03-25T07:52:01;12.70;72.00
8882;DHT22;4477;48.736;9.176;2024-03-25T07:54:27;13.20;66.40
8882;DHT22;4477;48.736;9.176;2024-03-25T07:56:53;14.00;63.80
8882;DHT22;4477;48.736;9.176;2024-03-25T07:59:19;14.20;62.70
8882;DHT22;4477;48.736;9.176;2024-03-25T08:01:45;14.60;60.80
8882;DHT22;4477;48.736;9.176;2024-03-25T08:04:11;15.30;57.20
8882;DHT22;4477;48.736;9.176;2024-03-25T08:06:38;16.50;56.60
8882;DHT22;4477;48.736;9.176;2024-03-25T08:09:05;16.50;53.70
8882;DHT22;4477;48.736;9.176;2024-03-25T08:11:31;16.90;54.00
8882;DHT22;4477;48.736;9.176;2024-03-25T08:13:57;16.10;52.00
8882;DHT22;4477;48.736;9.176;2024-03-25T08:16:23;15.30;54.30
8882;DHT22;4477;48.736;9.176;2024-03-25T08:18:49;14.40;55.40
8882;DHT22;4477;48.736;9.176;2024-03-25T08:21:15;14.80;55.10
8882;DHT22;4477;48.736;9.176;2024-03-25T08:23:44;14.00;54.20
8882;DHT22;4477;48.736;9.176;2024-03-25T08:26:11;14.20;54.80
8882;DHT22;4477;48.736;9.176;2024-03-25T08:28:37;14.30;52.90
8882;DHT22;4477;48.736;9.176;2024-03-25T08:31:03;15.00;51.40
8882;DHT22;4477;48.736;9.176;2024-03-25T08:33:29;15.40;51.00
8882;DHT22;4477;48.736;9.176;2024-03-25T08:35:55;15.50;50.50
8882;DHT22;4477;48.736;9.176;2024-03-25T08:38:21;15.50;51.30
8882;DHT22;4477;48.736;9.176;2024-03-25T08:40:48;15.70;50.60
8882;DHT22;4477;48.736;9.176;2024-03-25T08:43:15;16.00;49.40
8882;DHT22;4477;48.736;9.176;2024-03-25T08:45:41;15.40;49.70
8882;DHT22;4477;48.736;9.176;2024-03-25T08:48:07;14.40;51.00
8882;DHT22;4477;48.736;9.176;2024-03-25T08:50:33;14.30;54.00
8882;DHT22;4477;48.736;9.176;2024-03-25T08:52:59;15.60;52.60
8882;DHT22;4477;48.736;9.176;2024-03-25T08:55:25;16.90;49.70
8882;DHT22;4477;48.736;9.176;2024-03-25T08:57:52;17.80;48.00
8882;DHT22;4477;48.736;9.176;2024-03-25T09:00:20;17.30;46.80
8882;DHT22;4477;48.736;9.176;2024-03-25T09:02:46;16.10;48.30
8882;DHT22;4477;48.736;9.176;2024-03-25T09:05:12;14.70;47.20
8882;DHT22;4477;48.736;9.176;2024-03-25T09:07:38;12.80;52.50
8882;DHT22;4477;48.736;9.176;2024-03-25T09:10:05;10.90;58.00
8882;DHT22;4477;48.736;9.176;2024-03-25T09:12:49;10.40;60.10
8882;DHT22;4477;48.736;9.176;2024-03-25T09:15:15;10.20;60.30
8882;DHT22;4477;48.736;9.176;2024-03-25T09:17:43;10.30;62.70
8882;DHT22;4477;48.736;9.176;2024-03-25T09:20:09;11.70;58.30
8882;DHT22;4477;48.736;9.176;2024-03-25T09:22:37;13.80;55.20
8882;DHT22;4477;48.736;9.176;2024-03-25T09:25:03;15.30;52.60
8882;DHT22;4477;48.736;9.176;2024-03-25T09:27:29;16.40;48.60
8882;DHT22;4477;48.736;9.176;2024-03-25T09:29:56;17.70;46.90
8882;DHT22;4477;48.736;9.176;2024-03-25T09:32:21;17.60;46.50
8882;DHT22;4477;48.736;9.176;2024-03-25T09:34:49;18.50;46.10
8882;DHT22;4477;48.736;9.176;2024-03-25T09:37:15;19.00;44.10
8882;DHT22;4477;48.736;9.176;2024-03-25T09:39:41;18.60;41.30
8882;DHT22;4477;48.736;9.176;2024-03-25T09:42:08;19.20;44.80
8882;DHT22;4477;48.736;9.176;2024-03-25T09:44:34;19.20;39.40
8882;DHT22;4477;48.736;9.176;2024-03-25T09:47:00;20.30;38.90
8882;DHT22;4477;48.736;9.176;2024-03-25T09:49:27;21.00;42.50
8882;DHT22;4477;48.736;9.176;2024-03-25T09:51:55;21.60;40.70
8882;DHT22;4477;48.736;9.176;2024-03-25T09:54:21;22.10;37.40
8882;DHT22;4477;48.736;9.176;2024-03-25T09:56:48;20.70;36.20
8882;DHT22;4477;48.736;9.176;2024-03-25T09:59:15;19.30;38.90
8882;DHT22;4477;48.736;9.176;2024-03-25T10:01:41;18.10;42.10
8882;DHT22;4477;48.736;9.176;2024-03-25T10:04:08;16.20;42.50
8882;DHT22;4477;48.736;9.176;2024-03-25T10:06:34;14.80;45.50
8882;DHT22;4477;48.736;9.176;2024-03-25T10:09:04;13.90;47.10
8882;DHT22;4477;48.736;9.176;2024-03-25T10:11:31;13.20;48.10
8882;DHT22;4477;48.736;9.176;2024-03-25T10:13:57;12.20;50.70
8882;DHT22;4477;48.736;9.176;2024-03-25T10:16:23;11.70;52.20
8882;DHT22;4477;48.736;9.176;2024-03-25T10:18:49;11.40;52.70
8882;DHT22;4477;48.736;9.176;2024-03-25T10:21:19;13.40;49.80
8882;DHT22;4477;48.736;9.176;2024-03-25T10:23:45;16.10;44.20
8882;DHT22;4477;48.736;9.176;2024-03-25T10:26:28;17.10;40.50
8882;DHT22;4477;48.736;9.176;2024-03-25T10:29:01;16.60;41.20
8882;DHT22;4477;48.736;9.176;2024-03-25T10:31:27;15.70;42.70
8882;DHT22;4477;48.736;9.176;2024-03-25T10:33:53;14.60;44.60
8882;DHT22;4477;48.736;9.176;2024-03-25T10:36:21;13.90;46.90
8882;DHT22;4477;48.736;9.176;2024-03-25T10:38:49;12.80;46.50
8882;DHT22;4477;48.736;9.176;2024-03-25T10:41:18;12.50;48.70
8882;DHT22;4477;48.736;9.176;2024-03-25T10:43:46;12.30;51.10
8882;DHT22;4477;48.736;9.176;2024-03-25T10:46:17;11.70;50.60
8882;DHT22;4477;48.736;9.176;2024-03-25T10:48:50;11.60;49.30
8882;DHT22;4477;48.736;9.176;2024-03-25T10:51:20;11.30;50.40
8882;DHT22;4477;48.736;9.176;2024-03-25T10:53:48;11.40;49.60
8882;DHT22;4477;48.736;9.176;2024-03-25T10:56:20;11.40;50.80
8882;DHT22;4477;48.736;9.176;2024-03-25T10:58:48;11.10;50.00
8882;DHT22;4477;48.736;9.176;2024-03-25T11:01:15;11.30;49.50
8882;DHT22;4477;48.736;9.176;2024-03-25T11:03:42;11.30;50.60
8882;DHT22;4477;48.736;9.176;2024-03-25T11:06:08;11.50;51.60
8882;DHT22;4477;48.736;9.176;2024-03-25T11:08:34;12.40;52.40
8882;DHT22;4477;48.736;9.176;2024-03-25T11:11:00;14.00;51.20
8882;DHT22;4477;48.736;9.176;2024-03-25T11:13:28;16.80;45.90
8882;DHT22;4477;48.736;9.176;2024-03-25T11:15:54;18.00;39.60
8882;DHT22;4477;48.736;9.176;2024-03-25T11:18:23;17.40;41.40
8882;DHT22;4477;48.736;9.176;2024-03-25T11:20:59;16.70;42.10
8882;DHT22;4477;48.736;9.176;2024-03-25T11:23:26;15.70;46.00
8882;DHT22;4477;48.736;9.176;2024-03-25T11:25:55;15.30;45.80
8882;DHT22;4477;48.736;9.176;2024-03-25T11:28:28;14.90;45.00
8882;DHT22;4477;48.736;9.176;2024-03-25T11:30:55;14.70;47.00
8882;DHT22;4477;48.736;9.176;2024-03-25T11:33:22;15.10;47.00
8882;DHT22;4477;48.736;9.176;2024-03-25T11:35:48;14.90;45.70
8882;DHT22;4477;48.736;9.176;2024-03-25T11:38:14;14.60;48.30
8882;DHT22;4477;48.736;9.176;2024-03-25T11:40:42;15.50;45.40
8882;DHT22;4477;48.736;9.176;2024-03-25T11:43:09;18.10;44.50
8882;DHT22;4477;48.736;9.176;2024-03-25T11:45:36;20.00;40.30
8882;DHT22;4477;48.736;9.176;2024-03-25T11:48:03;19.50;37.30
8882;DHT22;4477;48.736;9.176;2024-03-25T11:50:29;19.20;40.80
8882;DHT22;4477;48.736;9.176;2024-03-25T11:52:55;19.40;41.10
8882;DHT22;4477;48.736;9.176;2024-03-25T11:55:21;20.00;36.70
8882;DHT22;4477;48.736;9.176;2024-03-25T11:57:55;20.30;39.50
8882;DHT22;4477;48.736;9.176;2024-03-25T12:00:21;19.80;37.60
8882;DHT22;4477;48.736;9.176;2024-03-25T12:02:48;19.90;41.50
8882;DHT22;4477;48.736;9.176;2024-03-25T12:05:14;20.90;37.00
8882;DHT22;4477;48.736;9.176;2024-03-25T12:07:40;20.80;35.20
8882;DHT22;4477;48.736;9.176;2024-03-25T12:10:07;22.10;36.80
8882;DHT22;4477;48.736;9.176;2024-03-25T12:12:51;22.00;33.40
8882;DHT22;4477;48.736;9.176;2024-03-25T12:15:17;22.20;37.90
8882;DHT22;4477;48.736;9.176;2024-03-25T12:17:43;22.10;34.60
8882;DHT22;4477;48.736;9.176;2024-03-25T12:20:11;21.90;33.20
8882;DHT22;4477;48.736;9.176;2024-03-25T12:22:37;21.80;32.60
8882;DHT22;4477;48.736;9.176;2024-03-25T12:25:05;22.10;36.80
8882;DHT22;4477;48.736;9.176;2024-03-25T12:27:31;22.40;33.00
8882;DHT22;4477;48.736;9.176;2024-03-25T12:29:58;21.80;34.10
8882;DHT22;4477;48.736;9.176;2024-03-25T12:32:31;21.10;33.40
8882;DHT22;4477;48.736;9.176;2024-03-25T12:34:58;20.60;33.90
8882;DHT22;4477;48.736;9.176;2024-03-25T12:37:26;20.60;33.60
8882;DHT22;4477;48.736;9.176;2024-03-25T12:39:52;20.70;34.10
8882;DHT22;4477;48.736;9.176;2024-03-25T12:42:18;20.80;37.30
8882;DHT22;4477;48.736;9.176;2024-03-25T12:44:44;20.40;38.30
8882;DHT22;4477;48.736;9.176;2024-03-25T12:47:10;20.30;38.00
8882;DHT22;4477;48.736;9.176;2024-03-25T12:49:36;20.80;34.00
8882;DHT22;4477;48.736;9.176;2024-03-25T12:52:05;21.10;32.80
8882;DHT22;4477;48.736;9.176;2024-03-25T12:54:32;21.40;34.10
8882;DHT22;4477;48.736;9.176;2024-03-25T12:57:00;21.70;32.40
8882;DHT22;4477;48.736;9.176;2024-03-25T12:59:26;21.70;33.60
8882;DHT22;4477;48.736;9.176;2024-03-25T13:01:52;20.70;32.60
8882;DHT22;4477;48.736;9.176;2024-03-25T13:04:18;20.00;34.40
8882;DHT22;4477;48.736;9.176;2024-03-25T13:06:44;20.30;34.30
8882;DHT22;4477;48.736;9.176;2024-03-25T13:09:10;20.40;33.40
8882;DHT22;4477;48.736;9.176;2024-03-25T13:11:37;20.30;33.30
8882;DHT22;4477;48.736;9.176;2024-03-25T13:14:03;20.10;33.80
8882;DHT22;4477;48.736;9.176;2024-03-25T13:16:29;20.50;36.20
8882;DHT22;4477;48.736;9.176;2024-03-25T13:18:55;21.00;32.10
8882;DHT22;4477;48.736;9.176;2024-03-25T13:21:21;20.20;32.50
8882;DHT22;4477;48.736;9.176;2024-03-25T13:23:47;20.20;32.60
8882;DHT22;4477;48.736;9.176;2024-03-25T13:26:13;19.10;34.70
8882;DHT22;4477;48.736;9.176;2024-03-25T13:28:40;19.00;36.10
8882;DHT22;4477;48.736;9.176;2024-03-25T13:31:06;19.10;34.40
8882;DHT22;4477;48.736;9.176;2024-03-25T13:33:32;20.00;37.70
8882;DHT22;4477;48.736;9.176;2024-03-25T13:35:58;19.40;36.00
8882;DHT22;4477;48.736;9.176;2024-03-25T13:38:24;18.80;36.00
8882;DHT22;4477;48.736;9.176;2024-03-25T13:40:49;19.40;36.60
8882;DHT22;4477;48.736;9.176;2024-03-25T13:43:15;18.90;35.90
8882;DHT22;4477;48.736;9.176;2024-03-25T13:45:48;18.20;37.40
8882;DHT22;4477;48.736;9.176;2024-03-25T13:48:15;18.30;40.00
8882;DHT22;4477;48.736;9.176;2024-03-25T13:50:41;18.80;37.00
8882;DHT22;4477;48.736;9.176;2024-03-25T13:53:07;18.90;35.20
8882;DHT22;4477;48.736;9.176;2024-03-25T13:55:33;18.90;34.10
8882;DHT22;4477;48.736;9.176;2024-03-25T13:57:59;20.10;36.60
8882;DHT22;4477;48.736;9.176;2024-03-25T14:00:25;19.80;34.70
8882;DHT22;4477;48.736;9.176;2024-03-25T14:02:53;19.90;32.10
8882;DHT22;4477;48.736;9.176;2024-03-25T14:05:19;19.60;33.90
8882;DHT22;4477;48.736;9.176;2024-03-25T14:07:45;19.30;33.30
8882;DHT22;4477;48.736;9.176;2024-03-25T14:10:11;19.20;34.40
8882;DHT22;4477;48.736;9.176;2024-03-25T14:12:37;19.50;35.10
8882;DHT22;4477;48.736;9.176;2024-03-25T14:15:03;19.80;34.90
8882;DHT22;4477;48.736;9.176;2024-03-25T14:17:29;19.40;34.50
8882;DHT22;4477;48.736;9.176;2024-03-25T14:19:57;19.70;33.80
8882;DHT22;4477;48.736;9.176;2024-03-25T14:22:23;19.40;36.00
8882;DHT22;4477;48.736;9.176;2024-03-25T14:24:49;19.70;33.70
8882;DHT22;4477;48.736;9.176;2024-03-25T14:27:15;19.40;35.40
8882;DHT22;4477;48.736;9.176;2024-03-25T14:29:41;19.40;36.40
8882;DHT22;4477;48.736;9.176;2024-03-25T14:32:07;18.80;36.70
8882;DHT22;4477;48.736;9.176;2024-03-25T14:34:33;18.30;38.30
8882;DHT22;4477;48.736;9.176;2024-03-25T14:37:01;17.80;37.50
8882;DHT22;4477;48.736;9.176;2024-03-25T14:39:27;17.40;38.10
8882;DHT22;4477;48.736;9.176;2024-03-25T14:41:53;17.40;38.10
8882;DHT22;4477;48.736;9.176;2024-03-25T14:44:19;17.00;37.30
8882;DHT22;4477;48.736;9.176;2024-03-25T14:46:45;17.20;37.50
8882;DHT22;4477;48.736;9.176;2024-03-25T14:49:11;17.80;36.00
8882;DHT22;4477;48.736;9.176;2024-03-25T14:51:37;18.10;35.20
8882;DHT22;4477;48.736;9.176;2024-03-25T14:54:05;17.80;35.20
8882;DHT22;4477;48.736;9.176;2024-03-25T14:56:31;18.30;33.50
8882;DHT22;4477;48.736;9.176;2024-03-25T14:58:57;18.20;35.50
8882;DHT22;4477;48.736;9.176;2024-03-25T15:01:23;17.20;39.80
8882;DHT22;4477;48.736;9.176;2024-03-25T15:03:49;16.80;39.80
8882;DHT22;4477;48.736;9.176;2024-03-25T15:06:15;16.80;38.10
8882;DHT22;4477;48.736;9.176;2024-03-25T15:08:41;17.00;38.60
8882;DHT22;4477;48.736;9.176;2024-03-25T15:11:09;17.00;38.80
8882;DHT22;4477;48.736;9.176;2024-03-25T15:13:36;16.90;38.00
8882;DHT22;4477;48.736;9.176;2024-03-25T15:16:03;16.50;38.80
8882;DHT22;4477;48.736;9.176;2024-03-25T15:18:29;16.70;38.30
8882;DHT22;4477;48.736;9.176;2024-03-25T15:21:02;16.90;38.80
8882;DHT22;4477;48.736;9.176;2024-03-25T15:23:28;17.00;39.00
8882;DHT22;4477;48.736;9.176;2024-03-25T15:25:55;17.30;37.90
8882;DHT22;4477;48.736;9.176;2024-03-25T15:28:22;17.00;36.00
8882;DHT22;4477;48.736;9.176;2024-03-25T15:30:48;16.90;36.90
8882;DHT22;4477;48.736;9.176;2024-03-25T15:33:14;16.70;36.50
8882;DHT22;4477;48.736;9.176;2024-03-25T15:35:42;16.20;38.60
8882;DHT22;4477;48.736;9.176;2024-03-25T15:38:08;16.10;39.20
8882;DHT22;4477;48.736;9.176;2024-03-25T15:40:35;16.00;38.50
8882;DHT22;4477;48.736;9.176;2024-03-25T15:43:01;15.90;38.70
8882;DHT22;4477;48.736;9.176;2024-03-25T15:45:28;16.10;38.90
8882;DHT22;4477;48.736;9.176;2024-03-25T15:47:55;16.20;38.80
8882;DHT22;4477;48.736;9.176;2024-03-25T15:50:21;16.10;40.00
8882;DHT22;4477;48.736;9.176;2024-03-25T15:52:47;15.90;39.20
8882;DHT22;4477;48.736;9.176;2024-03-25T15:55:13;15.70;38.40
8882;DHT22;4477;48.736;9.176;2024-03-25T15:57:39;15.40;39.90
8882;DHT22;4477;48.736;9.176;2024-03-25T16:00:06;15.90;40.40
8882;DHT22;4477;48.736;9.176;2024-03-25T16:02:34;15.70;38.10
8882;DHT22;4477;48.736;9.176;2024-03-25T16:05:00;15.10;39.80
8882;DHT22;4477;48.736;9.176;2024-03-25T16:07:26;14.80;38.30